Time;durP1;ratioP1;P1;durP2;ratioP2;P2;SDS_P1;SDS_P2;PMS_P1;PMS_P2;Temp;Humidity;BMP_temperature;BMP_pressure;BME280_temperature;BME280_humidity;BME280_pressure;Samples;Min_cycle;Max_cycle;Signal;HPM_P1;HPM_P2
2023/04/15 00:01:26;;;;;;;3.17;2.78;;;19.30;48.50;;;;;;4957337;28;20228;-70
2023/04/15 00:03:53;;;;;;;3.42;2.92;;;19.30;48.50;;;;;;4957115;28;20215;-70
2023/04/15 00:06:22;;;;;;;3.17;2.75;;;19.30;48.50;;;;;;4973599;28;20208;-70
2023/04/15 00:08:49;;;;;;;3.22;2.90;;;19.30;48.50;;;;;;4973330;28;20197;-70
2023/04/15 00:11:17;;;;;;;3.15;2.60;;;19.30;48.50;;;;;;4972988;28;20228;-70
2023/04/15 00:13:43;;;;;;;3.10;2.80;;;19.30;48.50;;;;;;4973290;28;20309;-70
2023/04/15 00:16:10;;;;;;;3.60;2.80;;;19.30;48.60;;;;;;4973459;28;20326;-70
2023/04/15 00:18:37;;;;;;;3.00;2.70;;;19.30;48.60;;;;;;4972865;28;20257;-70
2023/04/15 00:21:04;;;;;;;3.05;2.75;;;19.30;48.50;;;;;;4972837;28;20232;-70
2023/04/15 00:23:31;;;;;;;2.65;2.45;;;19.30;48.60;;;;;;4974347;28;20723;-70
2023/04/15 00:25:56;;;;;;;2.97;2.67;;;19.30;48.60;;;;;;4973166;28;20244;-70
2023/04/15 00:28:22;;;;;;;3.30;3.00;;;19.30;48.60;;;;;;4973038;28;20198;-70
2023/04/15 00:30:48;;;;;;;4.28;3.08;;;19.20;48.50;;;;;;4956635;28;20304;-70
2023/04/15 00:33:17;;;;;;;4.05;2.78;;;19.20;48.50;;;;;;4972538;28;20189;-70
2023/04/15 00:35:43;;;;;;;2.90;2.60;;;19.30;48.60;;;;;;4972561;28;20200;-70
2023/04/15 00:38:09;;;;;;;3.30;2.95;;;19.20;48.40;;;;;;4972975;28;20201;-70
2023/04/15 00:40:35;;;;;;;3.75;2.67;;;19.30;48.50;;;;;;4972762;28;20550;-70
2023/04/15 00:43:01;;;;;;;4.22;2.72;;;19.20;48.40;;;;;;4969779;28;20198;-70
2023/04/15 00:45:28;;;;;;;3.75;3.08;;;19.20;48.50;;;;;;4972535;28;20201;-70
2023/04/15 00:47:54;;;;;;;3.47;2.83;;;19.20;48.40;;;;;;4973915;28;20268;-70
2023/04/15 00:50:21;;;;;;;3.97;3.38;;;19.30;48.50;;;;;;4956073;28;20653;-70
2023/04/15 00:52:47;;;;;;;3.33;3.03;;;19.30;48.50;;;;;;4973622;28;20217;-70
2023/04/15 00:55:14;;;;;;;3.17;2.88;;;19.20;48.40;;;;;;4972627;28;20558;-70
2023/04/15 00:57:40;;;;;;;3.38;3.08;;;19.30;48.50;;;;;;4972455;28;20196;-70
2023/04/15 01:00:07;;;;;;;2.97;2.78;;;19.30;48.50;;;;;;4972738;28;20279;-70
2023/04/15 01:02:35;;;;;;;3.67;3.28;;;19.30;48.50;;;;;;4973636;28;20325;-70
2023/04/15 01:05:03;;;;;;;3.45;3.15;;;19.30;48.50;;;;;;4972289;28;20256;-70
2023/04/15 01:07:29;;;;;;;3.20;2.90;;;19.20;48.40;;;;;;4972526;28;20602;-70
2023/04/15 01:09:56;;;;;;;3.30;3.00;;;19.20;48.40;;;;;;4973697;28;20197;-70
2023/04/15 01:12:25;;;;;;;3.60;3.13;;;19.20;48.40;;;;;;4971827;28;20225;-70
2023/04/15 01:14:52;;;;;;;3.53;3.22;;;19.20;48.40;;;;;;4973395;28;20192;-70
2023/04/15 01:17:18;;;;;;;3.50;3.20;;;19.20;48.50;;;;;;4972247;28;20240;-70
2023/04/15 01:19:44;;;;;;;2.95;2.53;;;19.20;48.40;;;;;;4972129;28;20199;-70
2023/04/15 01:22:10;;;;;;;3.40;2.97;;;19.20;48.40;;;;;;4971961;28;20301;-70
2023/04/15 01:24:37;;;;;;;3.05;2.75;;;19.20;48.40;;;;;;4972279;28;20190;-70
2023/04/15 01:27:04;;;;;;;3.42;2.80;;;19.20;48.40;;;;;;4955982;28;20289;-70
2023/04/15 01:29:34;;;;;;;3.15;2.72;;;19.20;48.40;;;;;;4973260;28;20727;-70
2023/04/15 01:32:00;;;;;;;3.55;2.92;;;19.20;48.40;;;;;;4955732;28;20301;-70
2023/04/15 01:34:26;;;;;;;3.03;2.80;;;19.20;48.40;;;;;;4972115;28;20245;-70
2023/04/15 01:36:53;;;;;;;3.33;3.00;;;19.20;48.40;;;;;;4971973;28;20259;-70
2023/04/15 01:39:20;;;;;;;2.80;2.58;;;19.30;48.50;;;;;;4953024;29;20576;-70
2023/04/15 01:41:47;;;;;;;2.65;2.45;;;19.30;48.50;;;;;;4967275;28;20292;-70
2023/04/15 01:44:15;;;;;;;2.78;2.50;;;19.20;48.30;;;;;;4972055;28;20186;-70
2023/04/15 01:46:41;;;;;;;2.97;2.67;;;19.20;48.90;;;;;;4971846;28;20200;-70
2023/04/15 01:49:07;;;;;;;3.10;2.42;;;19.20;48.40;;;;;;4971767;28;20203;-70
2023/04/15 01:51:33;;;;;;;3.03;2.72;;;19.20;48.30;;;;;;4971470;28;20229;-70
2023/04/15 01:53:58;;;;;;;2.95;2.75;;;19.20;48.30;;;;;;4971842;28;20264;-70
2023/04/15 01:56:24;;;;;;;2.50;2.30;;;19.20;48.40;;;;;;4972027;28;20194;-71
2023/04/15 01:58:50;;;;;;;2.83;2.45;;;19.20;48.30;;;;;;4971980;28;20204;-70
2023/04/15 02:01:18;;;;;;;2.83;2.40;;;19.30;48.40;;;;;;4971639;28;20685;-70
2023/04/15 02:03:45;;;;;;;2.72;2.33;;;19.20;48.40;;;;;;4955802;28;20200;-70
2023/04/15 02:06:11;;;;;;;2.75;2.42;;;19.20;48.40;;;;;;4971668;28;20202;-70
2023/04/15 02:08:37;;;;;;;2.83;2.55;;;19.20;48.40;;;;;;4972934;28;20221;-70
2023/04/15 02:11:05;;;;;;;3.10;2.50;;;19.20;48.40;;;;;;4971664;28;20264;-70
2023/04/15 02:13:31;;;;;;;2.75;2.47;;;19.20;48.40;;;;;;4954794;28;20229;-70
2023/04/15 02:15:58;;;;;;;2.67;2.47;;;19.20;48.30;;;;;;4971965;28;20194;-71
2023/04/15 02:18:23;;;;;;;2.92;2.60;;;19.20;48.40;;;;;;4974272;28;20228;-70
2023/04/15 02:20:51;;;;;;;2.70;2.33;;;19.20;48.30;;;;;;4975102;28;20237;-70
2023/04/15 02:23:17;;;;;;;2.65;2.33;;;19.20;48.40;;;;;;4974965;28;20205;-70
2023/04/15 02:25:43;;;;;;;2.53;2.33;;;19.20;48.30;;;;;;4975246;28;20269;-70
2023/04/15 02:28:08;;;;;;;2.65;2.20;;;19.20;48.30;;;;;;4959356;28;20197;-70
2023/04/15 02:30:34;;;;;;;2.78;2.53;;;19.20;48.30;;;;;;4975136;28;20189;-70
2023/04/15 02:33:02;;;;;;;2.72;2.22;;;19.20;48.30;;;;;;4958672;28;20221;-70
2023/04/15 02:35:27;;;;;;;3.03;2.53;;;19.20;48.30;;;;;;4974986;28;20189;-70
2023/04/15 02:37:54;;;;;;;2.53;2.33;;;19.20;48.20;;;;;;4975265;28;20190;-70
2023/04/15 02:40:20;;;;;;;3.08;2.20;;;19.20;48.30;;;;;;4959201;28;20193;-70
2023/04/15 02:42:46;;;;;;;2.72;2.50;;;19.20;48.20;;;;;;4974655;28;20215;-70
2023/04/15 02:45:15;;;;;;;2.33;2.13;;;19.20;48.30;;;;;;4975058;28;20193;-70
2023/04/15 02:47:42;;;;;;;2.40;2.20;;;19.20;48.30;;;;;;4974985;28;20328;-70
2023/04/15 02:50:11;;;;;;;2.63;2.42;;;19.20;48.30;;;;;;4974643;28;20673;-70
2023/04/15 02:52:42;;;;;;;2.58;2.38;;;19.20;48.30;;;;;;4974614;28;20225;-70
2023/04/15 02:55:09;;;;;;;2.60;2.38;;;19.20;48.30;;;;;;4958929;28;20209;-70
2023/04/15 02:57:37;;;;;;;2.50;2.22;;;19.20;48.30;;;;;;4974762;28;20622;-70
2023/04/15 03:00:08;;;;;;;2.58;2.38;;;19.20;48.30;;;;;;4974761;28;20642;-70
2023/04/15 03:02:37;;;;;;;2.55;2.35;;;19.20;48.30;;;;;;4958292;28;20252;-70
2023/04/15 03:05:05;;;;;;;2.95;2.38;;;19.20;48.30;;;;;;4974510;28;20193;-70
2023/04/15 03:07:31;;;;;;;2.40;2.20;;;19.20;48.30;;;;;;4974769;28;20193;-70
2023/04/15 03:09:57;;;;;;;2.90;2.25;;;19.20;48.30;;;;;;4974741;28;20200;-70
2023/04/15 03:12:24;;;;;;;2.50;2.30;;;19.20;48.30;;;;;;4974020;28;20221;-70
2023/04/15 03:14:52;;;;;;;2.30;2.10;;;19.20;48.30;;;;;;4958606;28;20208;-70
2023/04/15 03:17:22;;;;;;;2.65;2.20;;;19.20;48.30;;;;;;4974504;28;20193;-70
2023/04/15 03:19:48;;;;;;;2.33;2.10;;;19.20;48.30;;;;;;4973948;28;20201;-70
2023/04/15 03:22:14;;;;;;;2.30;2.10;;;19.20;48.20;;;;;;4973793;28;20250;-70
2023/04/15 03:24:40;;;;;;;2.00;1.90;;;19.20;48.30;;;;;;4974416;28;20370;-70
2023/04/15 03:27:06;;;;;;;2.65;2.38;;;19.20;48.30;;;;;;4973985;28;20189;-70
2023/04/15 03:29:33;;;;;;;2.17;1.98;;;19.20;48.20;;;;;;4957168;28;20241;-70
2023/04/15 03:32:00;;;;;;;3.22;2.17;;;19.20;48.20;;;;;;4973615;28;20290;-70
2023/04/15 03:34:29;;;;;;;2.50;2.30;;;19.20;48.20;;;;;;4973792;28;20668;-70
2023/04/15 03:36:55;;;;;;;2.47;2.28;;;19.20;48.30;;;;;;4957822;28;20324;-70
2023/04/15 03:39:20;;;;;;;2.55;2.35;;;19.20;48.30;;;;;;4973797;28;20193;-70
2023/04/15 03:41:46;;;;;;;2.53;2.30;;;19.20;48.30;;;;;;4973454;28;20224;-70
2023/04/15 03:44:12;;;;;;;2.55;2.00;;;19.20;48.30;;;;;;4957914;28;20197;-70
2023/04/15 03:46:38;;;;;;;2.00;1.90;;;19.20;48.30;;;;;;4973705;28;20208;-70
2023/04/15 03:49:06;;;;;;;2.25;2.03;;;19.20;48.20;;;;;;4974870;28;20194;-70
2023/04/15 03:51:32;;;;;;;2.38;2.17;;;19.20;48.20;;;;;;4973387;28;20296;-70
2023/04/15 03:53:57;;;;;;;2.50;2.30;;;19.20;48.30;;;;;;4973408;28;20248;-70
2023/04/15 03:56:24;;;;;;;2.53;2.35;;;19.20;48.20;;;;;;4973573;28;20197;-70
2023/04/15 03:58:49;;;;;;;2.10;2.00;;;19.20;48.20;;;;;;4957408;28;20197;-70
2023/04/15 04:01:15;;;;;;;2.05;1.85;;;19.20;48.30;;;;;;4973648;28;20217;-71
2023/04/15 04:03:41;;;;;;;2.40;2.20;;;19.20;48.20;;;;;;4973533;28;20215;-71
2023/04/15 04:06:07;;;;;;;2.17;1.98;;;19.20;48.20;;;;;;4973634;28;20670;-71
2023/04/15 04:08:33;;;;;;;2.30;2.10;;;19.20;48.20;;;;;;4974585;28;20208;-71
2023/04/15 04:10:59;;;;;;;1.95;1.83;;;19.20;48.20;;;;;;4974518;28;20685;-71
2023/04/15 04:13:24;;;;;;;1.90;1.80;;;19.20;48.30;;;;;;4973408;28;20248;-71
2023/04/15 04:15:50;;;;;;;2.50;2.30;;;19.20;48.30;;;;;;4974432;28;20277;-70
2023/04/15 04:18:16;;;;;;;2.03;1.83;;;19.20;48.20;;;;;;4956852;28;20212;-70
2023/04/15 04:20:41;;;;;;;2.42;2.03;;;19.20;48.20;;;;;;4957102;28;20197;-70
2023/04/15 04:23:07;;;;;;;2.70;2.05;;;19.20;48.20;;;;;;4973987;28;20193;-70
2023/04/15 04:25:33;;;;;;;2.60;2.10;;;19.20;48.20;;;;;;4972773;28;20211;-70
2023/04/15 04:27:59;;;;;;;2.15;1.95;;;19.20;48.20;;;;;;4974524;28;20201;-70
2023/04/15 04:30:24;;;;;;;2.10;2.00;;;19.20;48.20;;;;;;4956557;28;20211;-70
2023/04/15 04:32:50;;;;;;;2.35;2.13;;;19.20;48.20;;;;;;4972667;28;20232;-70
2023/04/15 04:35:16;;;;;;;2.33;2.13;;;19.20;48.10;;;;;;4972695;28;20236;-70
2023/04/15 04:37:42;;;;;;;2.08;1.98;;;19.20;48.10;;;;;;4972856;28;20196;-70
2023/04/15 04:40:09;;;;;;;1.80;1.70;;;19.20;48.10;;;;;;4972298;28;20221;-70
2023/04/15 04:42:35;;;;;;;2.50;2.30;;;19.20;48.10;;;;;;4972461;28;20210;-70
2023/04/15 04:45:01;;;;;;;2.10;1.90;;;19.20;48.20;;;;;;4972771;28;20606;-70
2023/04/15 04:47:26;;;;;;;2.55;2.25;;;19.20;48.20;;;;;;4988745;28;20197;-70
2023/04/15 04:49:52;;;;;;;2.30;2.10;;;19.10;48.10;;;;;;4973719;28;20263;-70
2023/04/15 04:52:18;;;;;;;2.22;2.03;;;19.20;48.20;;;;;;4956054;28;20231;-70
2023/04/15 04:54:43;;;;;;;2.50;2.20;;;19.20;48.20;;;;;;4972712;28;20193;-70
2023/04/15 04:57:09;;;;;;;2.10;2.00;;;19.20;48.20;;;;;;4972304;28;20190;-70
2023/04/15 04:59:35;;;;;;;2.00;1.90;;;19.20;48.20;;;;;;4972653;28;20190;-70
2023/04/15 05:02:02;;;;;;;2.10;1.92;;;19.20;48.20;;;;;;4972275;28;20217;-70
2023/04/15 05:04:27;;;;;;;2.10;1.90;;;19.20;48.20;;;;;;4973537;28;20244;-70
2023/04/15 05:06:53;;;;;;;1.83;1.70;;;19.20;48.20;;;;;;4972545;28;20201;-70
2023/04/15 05:09:19;;;;;;;1.77;1.55;;;19.20;48.10;;;;;;4973756;28;20197;-70
2023/04/15 05:11:45;;;;;;;2.30;2.10;;;19.20;48.20;;;;;;4971855;28;20771;-70
2023/04/15 05:14:10;;;;;;;1.90;1.80;;;19.20;48.20;;;;;;4973480;28;20297;-70
2023/04/15 05:16:36;;;;;;;2.47;2.28;;;19.20;48.10;;;;;;4956397;28;20197;-70
2023/04/15 05:19:02;;;;;;;2.17;1.95;;;19.20;48.10;;;;;;4955955;28;20252;-70
2023/04/15 05:21:27;;;;;;;2.38;2.17;;;19.20;48.10;;;;;;4972074;28;20221;-70
2023/04/15 05:23:53;;;;;;;2.00;1.90;;;19.20;48.10;;;;;;4972131;28;20198;-70
2023/04/15 05:26:20;;;;;;;2.13;1.92;;;19.20;48.10;;;;;;4971946;28;20349;-70
2023/04/15 05:28:46;;;;;;;1.83;1.73;;;19.20;48.10;;;;;;4972195;28;20202;-70
2023/04/15 05:31:13;;;;;;;2.00;1.85;;;19.20;48.10;;;;;;4971958;28;20214;-70
2023/04/15 05:33:39;;;;;;;1.90;1.80;;;19.20;48.00;;;;;;4973242;28;20166;-70
2023/04/15 05:36:05;;;;;;;2.30;2.10;;;19.20;48.10;;;;;;4988356;28;20197;-70
2023/04/15 05:38:31;;;;;;;1.70;1.60;;;19.20;48.00;;;;;;4973025;28;20205;-70
2023/04/15 05:40:56;;;;;;;2.42;2.20;;;19.20;48.10;;;;;;4973107;28;20212;-70
2023/04/15 05:43:22;;;;;;;2.53;2.33;;;19.20;48.10;;;;;;4971796;28;20194;-70
2023/04/15 05:45:48;;;;;;;2.20;2.00;;;19.20;48.10;;;;;;4971739;28;20201;-70
2023/04/15 05:48:13;;;;;;;2.50;2.03;;;19.20;48.10;;;;;;4973090;28;20280;-70
2023/04/15 05:50:41;;;;;;;2.20;2.00;;;19.20;48.10;;;;;;4971791;28;20197;-70
2023/04/15 05:53:08;;;;;;;1.80;1.70;;;19.20;48.10;;;;;;4974903;28;20205;-70
2023/04/15 05:55:33;;;;;;;2.15;1.95;;;19.20;48.10;;;;;;4977012;28;20276;-70
2023/04/15 05:57:59;;;;;;;1.95;1.83;;;19.20;48.10;;;;;;4959914;28;20225;-70
2023/04/15 06:00:25;;;;;;;2.10;1.90;;;19.20;48.10;;;;;;4975612;28;20197;-70
2023/04/15 06:02:51;;;;;;;2.00;1.80;;;19.20;48.10;;;;;;4975786;28;20196;-70
2023/04/15 06:05:17;;;;;;;1.60;1.45;;;19.20;48.10;;;;;;4976775;28;20280;-70
2023/04/15 06:07:43;;;;;;;1.77;1.67;;;19.20;48.70;;;;;;4975791;28;20285;-70
2023/04/15 06:10:09;;;;;;;1.90;1.73;;;19.20;48.10;;;;;;4975525;28;20220;-70
2023/04/15 06:12:35;;;;;;;2.10;1.88;;;19.20;48.20;;;;;;4975216;28;20610;-70
2023/04/15 06:15:01;;;;;;;1.67;1.58;;;19.20;48.20;;;;;;4975447;28;20197;-70
2023/04/15 06:17:27;;;;;;;2.17;1.98;;;19.20;48.10;;;;;;4975311;28;20196;-70
2023/04/15 06:19:54;;;;;;;1.92;1.80;;;19.20;48.10;;;;;;4976417;28;20576;-70
2023/04/15 06:22:23;;;;;;;2.00;1.80;;;19.20;48.20;;;;;;4975249;28;20209;-70
2023/04/15 06:24:50;;;;;;;2.10;2.00;;;19.20;48.20;;;;;;4975264;28;20229;-70
2023/04/15 06:27:16;;;;;;;2.00;1.90;;;19.20;48.20;;;;;;4976495;28;20657;-70
2023/04/15 06:29:42;;;;;;;2.10;1.90;;;19.20;48.80;;;;;;4976735;28;20676;-71
2023/04/15 06:32:08;;;;;;;2.28;2.08;;;19.20;48.20;;;;;;4975976;28;20225;-70
2023/04/15 06:34:34;;;;;;;2.38;1.98;;;19.20;48.20;;;;;;4974835;28;20190;-70
2023/04/15 06:37:00;;;;;;;2.85;1.92;;;19.20;48.20;;;;;;4976207;28;20240;-70
2023/04/15 06:39:26;;;;;;;2.00;1.90;;;19.20;48.20;;;;;;4976013;28;20197;-70
2023/04/15 06:41:52;;;;;;;2.28;2.08;;;19.20;48.30;;;;;;4974712;28;20224;-70
2023/04/15 06:44:20;;;;;;;2.42;2.22;;;19.20;48.30;;;;;;4975049;28;20197;-70
2023/04/15 06:46:46;;;;;;;2.38;1.90;;;19.20;48.30;;;;;;4958810;28;20208;-70
2023/04/15 06:49:11;;;;;;;2.10;1.90;;;19.20;48.30;;;;;;4974999;28;20186;-70
2023/04/15 06:51:37;;;;;;;2.05;1.95;;;19.20;48.30;;;;;;4974427;28;20225;-70
2023/04/15 06:54:05;;;;;;;2.15;1.95;;;19.20;48.30;;;;;;4958612;28;20202;-70
2023/04/15 06:56:32;;;;;;;2.40;2.20;;;19.20;48.40;;;;;;4974643;28;20339;-70
2023/04/15 06:58:58;;;;;;;2.67;2.47;;;19.20;48.30;;;;;;4974635;28;20186;-70
2023/04/15 07:01:24;;;;;;;2.58;2.38;;;19.20;48.40;;;;;;4974633;28;20221;-70
2023/04/15 07:03:50;;;;;;;2.92;2.40;;;19.20;48.40;;;;;;4974357;28;20189;-70
2023/04/15 07:06:16;;;;;;;2.17;1.98;;;19.20;48.40;;;;;;4974701;28;20193;-70
2023/04/15 07:08:41;;;;;;;2.22;2.05;;;19.20;48.40;;;;;;4974404;28;20197;-70
2023/04/15 07:11:07;;;;;;;2.58;2.08;;;19.20;48.40;;;;;;4974139;28;20221;-70
2023/04/15 07:13:33;;;;;;;2.28;2.08;;;19.20;48.50;;;;;;4974205;28;20723;-70
2023/04/15 07:15:59;;;;;;;2.40;2.20;;;19.20;48.50;;;;;;4974441;28;20193;-70
2023/04/15 07:18:25;;;;;;;2.38;2.17;;;19.20;48.50;;;;;;4973986;28;20200;-70
2023/04/15 07:20:51;;;;;;;2.47;2.17;;;19.20;48.50;;;;;;4974246;28;20206;-70
2023/04/15 07:23:17;;;;;;;2.10;1.90;;;19.20;48.50;;;;;;4975288;28;20201;-70
2023/04/15 07:25:43;;;;;;;2.67;1.95;;;19.20;48.50;;;;;;4974726;28;20289;-70
2023/04/15 07:28:08;;;;;;;2.03;1.75;;;19.20;48.50;;;;;;4974260;28;20198;-70
2023/04/15 07:30:34;;;;;;;2.35;1.95;;;19.30;48.60;;;;;;4974233;28;20664;-70
2023/04/15 07:33:01;;;;;;;2.17;2.08;;;19.20;48.60;;;;;;4974995;28;20709;-70
2023/04/15 07:35:28;;;;;;;2.97;2.22;;;19.20;48.60;;;;;;4973929;28;20263;-70
2023/04/15 07:37:53;;;;;;;2.83;2.35;;;19.20;48.60;;;;;;4975245;28;20194;-70
2023/04/15 07:40:21;;;;;;;3.08;2.38;;;19.20;48.60;;;;;;4958008;28;20675;-70
2023/04/15 07:42:48;;;;;;;1.98;1.85;;;19.20;48.60;;;;;;4973620;28;20213;-69
2023/04/15 07:45:15;;;;;;;1.95;1.83;;;19.30;48.60;;;;;;4973769;28;20197;-70
2023/04/15 07:47:41;;;;;;;2.03;1.92;;;19.20;48.60;;;;;;4973719;28;20201;-70
2023/04/15 07:50:12;;;;;;;1.98;1.85;;;19.20;48.60;;;;;;4973676;28;20217;-70
2023/04/15 07:52:38;;;;;;;2.25;1.90;;;19.30;48.60;;;;;;4973249;28;20316;-70
2023/04/15 07:55:08;;;;;;;2.25;2.05;;;19.30;48.60;;;;;;4973618;28;20182;-70
2023/04/15 07:57:35;;;;;;;2.13;1.92;;;19.30;48.70;;;;;;4957415;28;20197;-70
2023/04/15 08:00:06;;;;;;;1.98;1.83;;;19.30;48.60;;;;;;4973751;28;20204;-70
2023/04/15 08:02:39;;;;;;;2.83;2.20;;;19.30;48.60;;;;;;4973352;28;20225;-70
2023/04/15 08:05:06;;;;;;;2.25;1.70;;;19.30;48.60;;;;;;4974780;28;20182;-70
2023/04/15 08:07:32;;;;;;;2.83;2.00;;;19.30;48.50;;;;;;4973253;28;20662;-70
2023/04/15 08:09:58;;;;;;;2.13;1.85;;;19.30;48.50;;;;;;4973603;28;20292;-70
2023/04/15 08:12:24;;;;;;;2.78;2.17;;;19.40;48.50;;;;;;4972846;28;20315;-70
2023/04/15 08:14:51;;;;;;;1.88;1.77;;;19.40;48.40;;;;;;4972967;28;20268;-70
2023/04/15 08:17:16;;;;;;;2.30;2.10;;;19.40;48.40;;;;;;4973318;28;20193;-70
2023/04/15 08:19:42;;;;;;;2.15;1.95;;;19.40;48.40;;;;;;4956810;28;20205;-70
2023/04/15 08:22:09;;;;;;;2.08;1.88;;;19.40;48.30;;;;;;4973288;28;20228;-70
2023/04/15 08:24:35;;;;;;;3.03;2.10;;;19.50;48.40;;;;;;4973161;28;20268;-70
2023/04/15 08:27:03;;;;;;;2.25;1.90;;;19.50;48.30;;;;;;4973415;28;20280;-70
2023/04/15 08:29:29;;;;;;;1.90;1.80;;;19.50;48.40;;;;;;4973092;28;20256;-70
2023/04/15 08:31:55;;;;;;;2.88;1.80;;;19.50;48.30;;;;;;4973854;28;20259;-70
2023/04/15 08:34:21;;;;;;;2.58;2.00;;;19.50;48.30;;;;;;4974194;28;20347;-70
2023/04/15 08:36:46;;;;;;;2.10;1.88;;;19.50;48.20;;;;;;4972940;28;20193;-70
2023/04/15 08:39:12;;;;;;;1.95;1.70;;;19.60;48.30;;;;;;4973025;28;20285;-70
2023/04/15 08:41:58;;;;;;;2.05;1.88;;;19.60;48.30;;;;;;4973717;28;20214;-70
2023/04/15 08:44:24;;;;;;;1.83;1.73;;;19.60;48.20;;;;;;4973126;28;20205;-70
2023/04/15 08:46:52;;;;;;;1.50;1.40;;;19.70;48.30;;;;;;4974169;28;20248;-70
2023/04/15 08:49:20;;;;;;;1.80;1.70;;;19.70;48.30;;;;;;4972804;28;20198;-70
2023/04/15 08:51:47;;;;;;;1.85;1.60;;;19.70;48.20;;;;;;4948177;28;20276;-70
2023/04/15 08:54:13;;;;;;;1.70;1.60;;;19.70;48.20;;;;;;4973732;28;20190;-70
2023/04/15 08:56:39;;;;;;;1.52;1.42;;;19.80;48.40;;;;;;4972772;28;20189;-70
2023/04/15 08:59:06;;;;;;;1.77;1.67;;;19.70;48.30;;;;;;4972285;28;20193;-70
2023/04/15 09:01:32;;;;;;;1.77;1.63;;;19.70;48.30;;;;;;4972354;28;20213;-70
2023/04/15 09:03:58;;;;;;;1.50;1.40;;;19.80;48.40;;;;;;4973864;28;20345;-70
2023/04/15 09:06:26;;;;;;;1.63;1.52;;;19.80;48.40;;;;;;4973588;28;20225;-70
2023/04/15 09:08:52;;;;;;;1.90;1.80;;;19.80;48.40;;;;;;4972379;28;20220;-70
2023/04/15 09:11:18;;;;;;;1.80;1.60;;;19.80;48.30;;;;;;4971978;28;20307;-70
2023/04/15 09:13:45;;;;;;;1.63;1.52;;;19.80;48.30;;;;;;4972370;28;20775;-70
2023/04/15 09:16:10;;;;;;;2.08;1.80;;;19.80;48.40;;;;;;4973548;28;20194;-70
2023/04/15 09:18:38;;;;;;;1.42;1.33;;;19.80;48.40;;;;;;4973173;28;20205;-70
2023/04/15 09:21:05;;;;;;;1.88;1.42;;;19.80;48.40;;;;;;4956087;28;20249;-70
2023/04/15 09:23:32;;;;;;;1.50;1.35;;;19.80;48.40;;;;;;4972313;28;20201;-70
2023/04/15 09:25:58;;;;;;;1.73;1.60;;;19.80;48.30;;;;;;4956110;28;20220;-70
2023/04/15 09:28:25;;;;;;;1.42;1.33;;;19.80;48.30;;;;;;4972098;28;20217;-70
2023/04/15 09:30:59;;;;;;;1.70;1.60;;;19.80;48.30;;;;;;4972053;28;20271;-70
2023/04/15 09:33:28;;;;;;;1.45;1.35;;;19.80;48.30;;;;;;4971939;28;20233;-70
2023/04/15 09:36:00;;;;;;;1.73;1.48;;;19.80;48.30;;;;;;4973376;28;20252;-70
2023/04/15 09:38:27;;;;;;;1.25;1.15;;;19.80;48.30;;;;;;4973303;28;20177;-70
2023/04/15 09:40:53;;;;;;;2.08;1.67;;;19.80;48.30;;;;;;4971881;28;20217;-70
2023/04/15 09:43:19;;;;;;;1.33;1.23;;;19.90;48.40;;;;;;4955897;28;20280;-70
2023/04/15 09:45:50;;;;;;;1.33;1.23;;;19.80;48.30;;;;;;4972099;28;20201;-70
2023/04/15 09:48:35;;;;;;;1.40;1.30;;;19.80;48.30;;;;;;4971955;28;20233;-70
2023/04/15 09:51:01;;;;;;;1.38;1.27;;;19.80;48.30;;;;;;4973062;28;20236;-70
2023/04/15 09:53:27;;;;;;;2.30;1.60;;;19.80;48.30;;;;;;4971614;28;20221;-70
2023/04/15 09:55:57;;;;;;;1.73;1.48;;;19.90;48.40;;;;;;4972008;28;20216;-70
2023/04/15 09:58:28;;;;;;;1.33;1.23;;;19.80;48.30;;;;;;4971889;28;20193;-70
2023/04/15 10:00:56;;;;;;;1.30;1.20;;;19.80;48.90;;;;;;4973006;28;20206;-70
2023/04/15 10:03:26;;;;;;;1.30;1.20;;;19.90;48.40;;;;;;4971771;28;20288;-70
2023/04/15 10:05:55;;;;;;;1.50;1.40;;;19.90;48.30;;;;;;4973010;28;20189;-70
2023/04/15 10:08:24;;;;;;;1.80;1.60;;;19.90;48.30;;;;;;4972069;28;20197;-70
2023/04/15 10:10:51;;;;;;;1.38;1.20;;;19.90;48.30;;;;;;4971589;28;20225;-70
2023/04/15 10:13:23;;;;;;;1.30;1.20;;;19.90;48.20;;;;;;4952196;29;20245;-70
2023/04/15 10:16:05;;;;;;;1.20;1.10;;;19.90;48.20;;;;;;4972614;28;20237;-70
2023/04/15 10:18:36;;;;;;;1.48;1.27;;;19.80;48.20;;;;;;4955425;28;20205;-70
2023/04/15 10:21:04;;;;;;;1.80;1.13;;;19.90;48.10;;;;;;4955219;28;20280;-70
2023/04/15 10:23:32;;;;;;;1.38;1.27;;;19.90;48.10;;;;;;4972765;28;20189;-70
2023/04/15 10:25:58;;;;;;;1.40;1.30;;;19.90;48.10;;;;;;4971670;28;20194;-70
2023/04/15 10:28:26;;;;;;;1.30;1.20;;;19.90;48.10;;;;;;4971596;28;20201;-70
2023/04/15 10:30:52;;;;;;;1.75;1.48;;;19.90;48.20;;;;;;4972959;28;20221;-70
2023/04/15 10:33:23;;;;;;;1.75;1.25;;;19.90;48.10;;;;;;4955174;28;20217;-70
2023/04/15 10:35:51;;;;;;;1.30;1.20;;;19.90;48.20;;;;;;4972854;28;20276;-70
2023/04/15 10:38:39;;;;;;;1.40;1.30;;;19.90;48.20;;;;;;4972721;28;20232;-70
2023/04/15 10:41:26;;;;;;;1.33;1.23;;;19.90;48.20;;;;;;4969779;28;20591;-70
2023/04/15 10:44:02;;;;;;;1.60;1.20;;;19.90;48.30;;;;;;4974803;28;20236;-70
2023/04/15 10:46:44;;;;;;;1.48;1.10;;;19.90;48.10;;;;;;4976139;28;20193;-70
2023/04/15 10:49:16;;;;;;;0.93;0.93;;;19.90;48.20;;;;;;4974811;28;20186;-71
2023/04/15 10:51:51;;;;;;;1.10;1.00;;;19.90;48.10;;;;;;4974092;28;20233;-70
2023/04/15 10:54:23;;;;;;;1.30;1.20;;;19.90;48.30;;;;;;4958907;28;20189;-70
2023/04/15 10:57:06;;;;;;;1.20;1.10;;;19.90;48.20;;;;;;4974832;28;20189;-71
2023/04/15 10:59:37;;;;;;;1.85;1.30;;;20.00;48.30;;;;;;4974855;28;20260;-70
2023/04/15 11:02:06;;;;;;;1.27;1.17;;;19.90;48.20;;;;;;4974352;28;20213;-70
2023/04/15 11:04:58;;;;;;;1.30;1.20;;;19.90;48.30;;;;;;4975948;28;20201;-70
2023/04/15 11:07:55;;;;;;;1.77;1.50;;;20.00;48.30;;;;;;4975776;28;20284;-70
2023/04/15 11:10:30;;;;;;;1.38;1.27;;;19.90;48.20;;;;;;4974337;28;20214;-70
2023/04/15 11:13:02;;;;;;;1.30;1.20;;;20.00;48.40;;;;;;4959766;28;20209;-70
2023/04/15 11:15:36;;;;;;;1.00;1.00;;;20.00;48.40;;;;;;4974712;28;20665;-69
2023/04/15 11:18:11;;;;;;;0.93;0.93;;;20.00;48.40;;;;;;4959112;28;20292;-70
2023/04/15 11:20:39;;;;;;;1.27;1.17;;;20.00;48.40;;;;;;4974160;28;20193;-70
2023/04/15 11:23:06;;;;;;;1.30;1.20;;;20.00;48.50;;;;;;4974385;28;20193;-70
2023/04/15 11:25:34;;;;;;;1.38;1.23;;;20.00;48.40;;;;;;4975534;28;20201;-70
2023/04/15 11:28:01;;;;;;;0.90;0.90;;;20.00;48.40;;;;;;4974357;28;20202;-70
2023/04/15 11:30:31;;;;;;;1.48;1.38;;;20.00;48.40;;;;;;4958369;28;20640;-70
2023/04/15 11:33:07;;;;;;;1.52;1.40;;;20.00;48.40;;;;;;4967254;28;20696;-70
2023/04/15 11:35:34;;;;;;;1.15;1.05;;;20.00;48.40;;;;;;4975657;28;20193;-70
2023/04/15 11:38:04;;;;;;;1.17;1.08;;;20.00;48.50;;;;;;4975245;28;20197;-70
2023/04/15 11:40:32;;;;;;;1.30;1.20;;;20.00;48.40;;;;;;4957674;28;20193;-70
2023/04/15 11:43:09;;;;;;;1.10;1.00;;;20.00;48.40;;;;;;4973810;28;20217;-70
2023/04/15 11:45:37;;;;;;;1.20;1.10;;;20.00;48.50;;;;;;4973814;28;20195;-70
2023/04/15 11:48:08;;;;;;;1.10;1.10;;;20.00;48.60;;;;;;4973897;28;20193;-70
2023/04/15 11:50:34;;;;;;;1.25;1.15;;;19.90;48.50;;;;;;4956312;28;20669;-70
2023/04/15 11:53:05;;;;;;;1.10;1.00;;;20.00;48.50;;;;;;4974764;28;20213;-70
2023/04/15 11:55:43;;;;;;;1.35;1.00;;;20.00;48.60;;;;;;4973495;28;20632;-70
2023/04/15 11:58:14;;;;;;;1.17;1.10;;;20.00;48.60;;;;;;4973817;28;20212;-70
2023/04/15 12:00:46;;;;;;;1.20;1.10;;;20.00;48.50;;;;;;4973526;28;20224;-70
2023/04/15 12:03:16;;;;;;;1.00;0.90;;;20.00;48.40;;;;;;4973413;28;20208;-70
2023/04/15 12:06:07;;;;;;;1.10;1.10;;;20.00;48.40;;;;;;4973419;28;20292;-70
2023/04/15 12:08:59;;;;;;;0.80;0.80;;;20.00;48.50;;;;;;4973572;28;20240;-70
2023/04/15 12:11:39;;;;;;;1.20;1.10;;;20.00;48.50;;;;;;4968848;28;20221;-71
2023/04/15 12:14:37;;;;;;;1.08;0.98;;;20.00;48.60;;;;;;4957353;28;20665;-70
2023/04/15 12:17:05;;;;;;;1.00;1.00;;;20.00;48.40;;;;;;4971194;28;20220;-70
2023/04/15 12:19:37;;;;;;;1.00;1.00;;;20.00;48.50;;;;;;4956857;28;20201;-70
2023/04/15 12:22:11;;;;;;;1.02;0.93;;;20.00;48.60;;;;;;4966674;28;20240;-70
2023/04/15 12:24:38;;;;;;;0.82;0.75;;;20.00;48.40;;;;;;4957129;28;20667;-70
2023/04/15 12:27:07;;;;;;;1.13;1.02;;;20.00;48.50;;;;;;4973413;28;20586;-70
2023/04/15 12:29:35;;;;;;;1.67;1.02;;;20.00;48.50;;;;;;4972960;28;20268;-70
2023/04/15 12:32:18;;;;;;;1.23;1.17;;;20.00;48.50;;;;;;4972604;28;20217;-70
2023/04/15 12:34:51;;;;;;;1.10;1.00;;;20.00;48.50;;;;;;4974181;28;20190;-70
2023/04/15 12:37:18;;;;;;;1.25;1.15;;;20.00;48.60;;;;;;4974167;28;20268;-70
2023/04/15 12:39:47;;;;;;;1.10;1.10;;;20.00;48.70;;;;;;4974120;28;20185;-70
2023/04/15 12:42:15;;;;;;;0.90;0.90;;;20.00;48.70;;;;;;4972701;28;20284;-70
2023/04/15 12:44:41;;;;;;;1.45;1.30;;;20.00;48.70;;;;;;4974119;28;20188;-70
2023/04/15 12:47:09;;;;;;;1.02;0.93;;;20.00;48.70;;;;;;4972900;28;20193;-70
2023/04/15 12:49:35;;;;;;;1.23;1.13;;;20.00;48.70;;;;;;4973156;28;20221;-70
2023/04/15 12:52:02;;;;;;;0.98;0.98;;;20.00;48.60;;;;;;4980693;28;20592;-70